Time;durP1;ratioP1;P1;durP2;ratioP2;P2;SDS_P1;SDS_P2;PMS_P1;PMS_P2;Temp;Humidity;BMP_temperature;BMP_pressure;BME280_temperature;BME280_humidity;BME280_pressure;Samples;Min_cycle;Max_cycle;Signal;HPM_P1;HPM_P2
2021/07/09 00:00:49;;;;;;;8.15;2.80;;;;;;;19.53;nan;100788.41;5026094;28;20459;-79
2021/07/09 00:03:15;;;;;;;5.38;2.85;;;;;;;19.51;nan;100783.09;5029447;28;20048;-80
2021/07/09 00:05:40;;;;;;;3.70;2.90;;;;;;;19.50;nan;100781.38;5037705;28;20034;-80
2021/07/09 00:08:06;;;;;;;6.28;3.00;;;;;;;19.52;nan;100786.66;5038128;28;20171;-80
2021/07/09 00:10:31;;;;;;;8.82;2.72;;;;;;;19.56;nan;100775.75;5028849;28;20040;-79
2021/07/09 00:12:56;;;;;;;4.00;2.70;;;;;;;19.55;nan;100792.78;5037172;28;20044;-80
2021/07/09 00:15:22;;;;;;;4.22;3.13;;;;;;;19.54;nan;100795.50;5027365;28;20075;-80
2021/07/09 00:17:47;;;;;;;4.85;2.65;;;;;;;19.54;nan;100791.00;5028705;28;20037;-80
2021/07/09 00:20:13;;;;;;;6.18;3.17;;;;;;;19.54;nan;100790.13;5019516;28;20103;-80
2021/07/09 00:22:38;;;;;;;5.55;2.78;;;;;;;19.52;nan;100779.50;5035617;28;20503;-79
2021/07/09 00:25:04;;;;;;;8.32;2.78;;;;;;;19.54;nan;100780.28;5034870;28;20077;-79
2021/07/09 00:27:30;;;;;;;7.07;3.22;;;;;;;19.46;nan;100777.06;5034876;28;20081;-80
2021/07/09 00:29:55;;;;;;;4.95;2.95;;;;;;;19.43;nan;100769.16;5034816;28;20045;-80
2021/07/09 00:32:20;;;;;;;4.65;3.15;;;;;;;19.48;nan;100773.38;5034182;28;20033;-79
2021/07/09 00:34:45;;;;;;;6.80;2.92;;;;;;;19.56;nan;100777.56;5034925;28;20083;-79
2021/07/09 00:37:11;;;;;;;7.32;3.17;;;;;;;19.53;nan;100781.25;5034724;28;20033;-80
2021/07/09 00:39:36;;;;;;;6.43;3.17;;;;;;;19.60;nan;100780.06;5027591;28;20026;-80
2021/07/09 00:42:02;;;;;;;4.13;2.60;;;;;;;19.62;nan;100783.56;5037421;28;20103;-80
2021/07/09 00:46:59;;;;;;;7.40;3.28;;;;;;;19.57;nan;100776.63;5001543;28;20131;-75
2021/07/09 00:49:25;;;;;;;5.90;3.15;;;;;;;19.46;nan;100785.94;5000127;28;20034;-76
2021/07/09 00:51:50;;;;;;;6.53;3.50;;;;;;;19.48;nan;100780.56;5002521;28;20038;-75
2021/07/09 00:54:15;;;;;;;6.53;2.97;;;;;;;19.48;nan;100770.72;5001264;28;20038;-76
2021/07/09 00:56:42;;;;;;;4.05;3.10;;;;;;;19.49;nan;100759.09;5000033;28;20408;-76
2021/07/09 00:59:07;;;;;;;5.65;3.13;;;;;;;19.49;nan;100748.38;5000093;28;20441;-76
2021/07/09 01:01:32;;;;;;;5.60;3.15;;;;;;;19.42;nan;100746.00;5001419;28;20088;-75
2021/07/09 01:03:58;;;;;;;5.70;3.33;;;;;;;19.39;nan;100746.13;5005786;28;20036;-75
2021/07/09 01:06:23;;;;;;;6.20;4.35;;;;;;;19.34;nan;100748.13;5003459;28;20564;-77
2021/07/09 01:08:49;;;;;;;8.50;3.92;;;;;;;19.30;nan;100738.44;5005456;28;20036;-77
2021/07/09 01:11:14;;;;;;;5.28;3.83;;;;;;;19.25;nan;100744.84;4988263;28;20138;-75
2021/07/09 01:13:42;;;;;;;5.38;4.25;;;;;;;19.23;nan;100743.16;5003454;28;20092;-76
2021/07/09 01:16:12;;;;;;;7.40;3.72;;;;;;;19.19;nan;100742.41;5004747;28;20579;-77
2021/07/09 01:18:38;;;;;;;6.28;4.45;;;;;;;19.13;nan;100734.63;5006341;28;20095;-77
2021/07/09 01:21:07;;;;;;;6.95;4.38;;;;;;;19.15;nan;100729.19;4999282;28;20136;-78
2021/07/09 01:23:33;;;;;;;7.40;4.20;;;;;;;19.16;nan;100739.00;5005688;28;20046;-77
2021/07/09 01:25:58;;;;;;;5.50;4.80;;;;;;;19.20;nan;100733.47;5003271;28;20046;-77
2021/07/09 01:28:24;;;;;;;8.38;5.05;;;;;;;19.21;nan;100726.31;5005375;28;20029;-78
2021/07/09 01:30:49;;;;;;;6.65;4.55;;;;;;;19.20;nan;100728.13;5005038;28;20029;-76
2021/07/09 01:33:14;;;;;;;8.57;4.85;;;;;;;19.17;nan;100720.19;5003252;28;20038;-76
2021/07/09 01:35:40;;;;;;;8.32;5.00;;;;;;;19.18;nan;100721.94;5005312;28;20089;-76
2021/07/09 01:38:07;;;;;;;6.50;4.80;;;;;;;19.19;nan;100712.97;5004662;28;20039;-76
2021/07/09 01:40:35;;;;;;;10.38;5.93;;;;;;;19.15;nan;100710.47;5003227;28;20038;-76
2021/07/09 01:43:02;;;;;;;9.57;6.05;;;;;;;19.16;nan;100718.44;5005188;28;20085;-76
2021/07/09 01:45:27;;;;;;;7.93;5.90;;;;;;;19.11;nan;100709.72;5004436;28;20488;-76
2021/07/09 01:47:54;;;;;;;7.25;6.50;;;;;;;19.07;nan;100716.13;5002932;28;20034;-76
2021/07/09 01:50:20;;;;;;;9.63;7.60;;;;;;;19.02;nan;100720.78;5005038;28;20038;-77
2021/07/09 01:52:45;;;;;;;9.75;7.82;;;;;;;19.02;nan;100718.09;5004775;28;20041;-76
2021/07/09 01:55:12;;;;;;;8.77;7.40;;;;;;;19.05;nan;100726.03;5002547;28;20038;-76
2021/07/09 01:57:39;;;;;;;9.48;7.45;;;;;;;19.04;nan;100721.59;5004725;28;20033;-77
2021/07/09 02:00:14;;;;;;;7.50;6.72;;;;;;;19.08;nan;100725.91;4989592;28;20025;-76
2021/07/09 02:02:40;;;;;;;7.57;6.88;;;;;;;19.11;nan;100719.56;5003614;28;20184;-76
2021/07/09 02:05:12;;;;;;;8.48;7.47;;;;;;;19.09;nan;100722.28;5003036;28;20042;-76
2021/07/09 02:07:39;;;;;;;11.18;8.25;;;;;;;19.01;nan;100716.38;5002957;28;20031;-76
2021/07/09 02:10:08;;;;;;;10.05;7.78;;;;;;;18.97;nan;100715.63;5003576;28;20496;-77
2021/07/09 02:12:35;;;;;;;8.43;7.50;;;;;;;18.93;nan;100727.34;5005148;28;20500;-77
2021/07/09 02:15:05;;;;;;;8.30;7.43;;;;;;;18.94;nan;100734.47;5002268;28;20038;-77
2021/07/09 02:17:30;;;;;;;7.57;6.88;;;;;;;18.90;nan;100735.50;5002386;28;20097;-76
2021/07/09 02:19:55;;;;;;;8.23;6.97;;;;;;;18.93;nan;100743.41;5005416;28;20500;-77
2021/07/09 02:22:21;;;;;;;9.15;8.25;;;;;;;18.96;nan;100742.41;5005406;28;20560;-76
2021/07/09 02:24:49;;;;;;;13.07;9.13;;;;;;;18.93;nan;100735.38;5002265;28;20608;-76
2021/07/09 02:27:14;;;;;;;9.60;8.70;;;;;;;18.89;nan;100725.75;5002352;28;20030;-77
2021/07/09 02:29:40;;;;;;;9.85;7.40;;;;;;;18.89;nan;100730.19;5003661;28;20029;-76
2021/07/09 02:32:09;;;;;;;9.65;8.75;;;;;;;18.87;nan;100729.41;5004653;28;20397;-77
2021/07/09 02:34:35;;;;;;;9.95;8.95;;;;;;;18.88;nan;100728.47;5002269;28;20042;-77
2021/07/09 02:37:02;;;;;;;11.02;8.55;;;;;;;18.92;nan;100725.63;5002978;28;20150;-76
2021/07/09 02:39:27;;;;;;;9.15;7.95;;;;;;;18.91;nan;100715.84;5004642;28;20493;-76
2021/07/09 02:41:53;;;;;;;8.68;7.78;;;;;;;18.88;nan;100707.06;5002361;28;20022;-76
2021/07/09 02:44:19;;;;;;;9.80;8.82;;;;;;;18.83;nan;100713.44;5002857;28;20038;-77
2021/07/09 02:46:44;;;;;;;9.13;8.18;;;;;;;18.82;nan;100703.69;5004286;28;20037;-76
2021/07/09 02:49:10;;;;;;;9.15;7.97;;;;;;;18.79;nan;100695.78;5002138;28;20450;-76
2021/07/09 02:51:36;;;;;;;9.32;8.40;;;;;;;18.72;nan;100691.56;4985505;28;20083;-76
2021/07/09 02:54:01;;;;;;;9.07;8.20;;;;;;;18.82;nan;100697.47;5004262;28;20037;-77
2021/07/09 02:56:26;;;;;;;9.23;7.95;;;;;;;18.82;nan;100700.16;5001347;28;20093;-77
2021/07/09 02:58:52;;;;;;;8.80;7.90;;;;;;;18.74;nan;100689.72;5003262;28;20092;-78
2021/07/09 03:01:17;;;;;;;8.45;7.65;;;;;;;18.76;nan;100703.94;5003988;28;20041;-77
2021/07/09 03:03:42;;;;;;;12.68;9.15;;;;;;;18.68;nan;100700.63;4984194;28;20447;-77
2021/07/09 03:06:08;;;;;;;8.90;8.00;;;;;;;18.68;nan;100691.72;5003308;28;20500;-77
2021/07/09 03:08:33;;;;;;;8.13;7.22;;;;;;;18.64;nan;100688.31;5003414;28;20092;-77
2021/07/09 03:10:59;;;;;;;8.60;7.80;;;;;;;18.65;nan;100683.81;5001729;28;20058;-77
2021/07/09 03:13:24;;;;;;;8.50;7.63;;;;;;;18.62;nan;100676.78;5003567;28;20034;-77
2021/07/09 03:15:50;;;;;;;10.65;8.02;;;;;;;18.60;nan;100675.97;4999550;28;20465;-77
2021/07/09 03:18:15;;;;;;;8.93;8.02;;;;;;;18.52;nan;100662.00;5000337;28;20374;-77
2021/07/09 03:20:40;;;;;;;7.72;6.93;;;;;;;18.52;nan;100656.66;5003660;28;20038;-76
2021/07/09 03:23:06;;;;;;;9.55;6.90;;;;;;;18.47;nan;100648.84;5002514;28;20096;-76
2021/07/09 03:25:31;;;;;;;10.13;7.63;;;;;;;18.50;nan;100654.06;5003351;28;20057;-76
2021/07/09 03:27:56;;;;;;;10.85;7.80;;;;;;;18.46;nan;100640.88;5000403;28;20026;-76
2021/07/09 03:30:22;;;;;;;7.93;6.97;;;;;;;18.45;nan;100631.13;5002630;28;20045;-76
2021/07/09 03:32:47;;;;;;;7.35;6.35;;;;;;;18.44;nan;100626.69;5003242;28;20040;-76
2021/07/09 03:35:13;;;;;;;7.57;6.32;;;;;;;18.43;nan;100619.63;5000695;28;20046;-76
2021/07/09 03:37:38;;;;;;;9.55;8.55;;;;;;;18.36;nan;100609.13;5002662;28;20128;-76
2021/07/09 03:40:07;;;;;;;7.47;6.78;;;;;;;18.39;nan;100603.69;5002880;28;20034;-76
2021/07/09 03:42:32;;;;;;;7.88;6.57;;;;;;;18.32;nan;100586.16;5000876;28;20042;-76
2021/07/09 03:44:58;;;;;;;8.05;6.18;;;;;;;18.32;nan;100574.59;4984520;28;20113;-76
2021/07/09 03:47:23;;;;;;;6.32;5.63;;;;;;;18.29;nan;100559.56;5002961;28;20496;-76
2021/07/09 03:49:48;;;;;;;7.93;6.38;;;;;;;18.27;nan;100532.03;5000824;28;20046;-76
2021/07/09 03:52:13;;;;;;;5.85;5.20;;;;;;;18.26;nan;100527.63;5002729;28;20034;-75
2021/07/09 03:54:39;;;;;;;4.60;3.83;;;;;;;18.26;nan;100527.63;5002088;28;20052;-75
2021/07/09 03:57:04;;;;;;;5.10;4.60;;;;;;;18.24;nan;100521.44;5000459;28;20038;-75
2021/07/09 03:59:30;;;;;;;5.68;5.13;;;;;;;18.20;nan;100490.44;5002744;28;20120;-76
2021/07/09 04:01:55;;;;;;;6.22;3.90;;;;;;;18.17;nan;100463.84;5002138;28;20965;-75
2021/07/09 04:04:20;;;;;;;3.95;3.10;;;;;;;18.16;nan;100456.78;5000280;28;20077;-76
2021/07/09 04:06:46;;;;;;;4.32;3.67;;;;;;;18.17;nan;100478.06;5003056;28;20058;-75
2021/07/09 04:09:11;;;;;;;3.53;2.47;;;;;;;18.21;nan;100508.22;5001682;28;20081;-75
2021/07/09 04:11:36;;;;;;;3.55;2.58;;;;;;;18.27;nan;100524.00;5000854;28;20065;-75
2021/07/09 04:14:02;;;;;;;2.60;1.90;;;;;;;18.36;nan;100538.81;5003297;28;20436;-75
2021/07/09 04:16:27;;;;;;;3.53;2.22;;;;;;;18.38;nan;100559.19;5000864;28;20489;-75
2021/07/09 04:18:53;;;;;;;2.85;2.05;;;;;;;18.47;nan;100558.00;5000956;28;20396;-75
2021/07/09 04:21:18;;;;;;;2.47;1.77;;;;;;;18.49;nan;100561.44;5003101;28;20590;-76
2021/07/09 04:23:44;;;;;;;2.33;1.70;;;;;;;18.51;nan;100558.72;5001652;28;20136;-76
2021/07/09 04:26:09;;;;;;;2.67;1.90;;;;;;;18.59;nan;100567.31;5001721;28;20489;-76
2021/07/09 04:28:34;;;;;;;2.50;1.67;;;;;;;18.70;nan;100565.09;5000168;28;20038;-76
2021/07/09 04:31:00;;;;;;;2.45;1.80;;;;;;;18.73;nan;100567.66;5002490;28;20092;-76
2021/07/09 04:33:25;;;;;;;2.92;1.98;;;;;;;18.80;nan;100577.19;5001753;28;20037;-76
2021/07/09 04:35:51;;;;;;;2.35;1.70;;;;;;;18.88;nan;100582.25;4999614;28;20529;-76
2021/07/09 04:38:17;;;;;;;2.20;1.40;;;;;;;18.97;nan;100575.69;5004345;28;20058;-76
2021/07/09 04:40:42;;;;;;;2.67;1.60;;;;;;;18.99;nan;100572.00;5006466;28;20037;-76
2021/07/09 04:43:07;;;;;;;2.90;1.27;;;;;;;19.02;nan;100562.97;5006335;28;20452;-75
2021/07/09 04:45:33;;;;;;;2.83;1.30;;;;;;;19.02;nan;100561.19;5003405;28;20038;-76
2021/07/09 04:47:59;;;;;;;1.95;1.33;;;;;;;19.06;nan;100564.59;5005572;28;20076;-76
2021/07/09 04:50:25;;;;;;;2.85;1.33;;;;;;;19.09;nan;100566.28;5006562;28;20038;-76
2021/07/09 04:52:50;;;;;;;1.70;1.30;;;;;;;19.11;nan;100561.75;5003894;28;20030;-76
2021/07/09 04:55:16;;;;;;;2.35;1.33;;;;;;;19.17;nan;100558.81;5005442;28;20056;-76
2021/07/09 04:57:41;;;;;;;1.90;1.30;;;;;;;19.19;nan;100563.16;5002693;28;20038;-76
2021/07/09 05:00:07;;;;;;;3.10;1.55;;;;;;;19.19;nan;100568.50;5005204;28;20046;-76
2021/07/09 05:02:37;;;;;;;2.80;1.30;;;;;;;19.18;nan;100564.09;5006979;28;20096;-76
2021/07/09 05:05:05;;;;;;;1.50;0.90;;;;;;;19.15;nan;100556.22;5006096;28;20404;-76
2021/07/09 05:07:30;;;;;;;1.65;1.00;;;;;;;19.16;nan;100562.41;5003791;28;20037;-76
2021/07/09 05:09:55;;;;;;;1.90;1.00;;;;;;;19.17;nan;100561.47;5005978;28;20038;-76
2021/07/09 05:12:20;;;;;;;2.05;1.20;;;;;;;19.14;nan;100559.78;5009904;28;20373;-75
2021/07/09 05:14:46;;;;;;;2.17;1.40;;;;;;;19.12;nan;100550.09;4985647;28;20646;-76
2021/07/09 05:17:11;;;;;;;2.03;1.10;;;;;;;19.20;nan;100553.31;4987602;28;20419;-76
2021/07/09 05:19:37;;;;;;;1.85;1.27;;;;;;;19.23;nan;100554.06;5005653;28;20033;-76
2021/07/09 05:22:02;;;;;;;3.35;1.40;;;;;;;19.29;nan;100560.97;5003319;28;20413;-76
2021/07/09 05:24:28;;;;;;;2.20;1.02;;;;;;;19.33;nan;100554.53;5004955;28;20030;-76
2021/07/09 05:26:54;;;;;;;2.10;1.45;;;;;;;19.31;nan;100553.75;5005171;28;20046;-76
2021/07/09 05:29:19;;;;;;;2.45;1.50;;;;;;;19.31;nan;100555.53;5003323;28;20077;-76
2021/07/09 05:31:45;;;;;;;3.42;1.75;;;;;;;19.30;nan;100549.31;5005361;28;20089;-76
2021/07/09 05:34:10;;;;;;;2.92;2.13;;;;;;;19.35;nan;100541.97;4987136;28;20041;-77
2021/07/09 05:36:36;;;;;;;3.28;2.08;;;;;;;19.41;nan;100541.72;5002877;28;20038;-76
2021/07/09 05:39:03;;;;;;;3.47;2.05;;;;;;;19.40;nan;100544.47;5005353;28;20061;-76
2021/07/09 05:41:28;;;;;;;3.58;2.40;;;;;;;19.39;nan;100540.06;5004706;28;20060;-76
2021/07/09 05:43:53;;;;;;;4.72;2.00;;;;;;;19.47;nan;100543.28;5002978;28;20568;-76
2021/07/09 05:46:19;;;;;;;2.85;2.30;;;;;;;19.53;nan;100543.00;5004935;28;20061;-77
2021/07/09 05:48:44;;;;;;;3.03;2.42;;;;;;;19.49;nan;100544.06;5003522;28;20405;-76
2021/07/09 05:51:09;;;;;;;3.53;2.10;;;;;;;19.44;nan;100538.94;5002725;28;20489;-75
2021/07/09 05:53:35;;;;;;;3.58;2.95;;;;;;;19.40;nan;100539.09;5005726;28;20117;-76
2021/07/09 05:56:00;;;;;;;4.00;3.30;;;;;;;19.45;nan;100540.66;5003485;28;20512;-76
2021/07/09 05:58:26;;;;;;;5.18;3.67;;;;;;;19.44;nan;100546.06;5003224;28;20039;-76
2021/07/09 06:00:52;;;;;;;4.18;3.08;;;;;;;19.38;nan;100546.31;5005346;28;20117;-76
2021/07/09 06:03:17;;;;;;;4.20;3.30;;;;;;;19.40;nan;100548.00;5003568;28;20138;-76
2021/07/09 06:05:42;;;;;;;5.15;4.32;;;;;;;19.48;nan;100537.84;5002857;28;20038;-76
2021/07/09 06:08:08;;;;;;;7.30;4.28;;;;;;;19.52;nan;100543.94;5005148;28;20092;-76
2021/07/09 06:10:35;;;;;;;3.75;3.35;;;;;;;19.55;nan;100546.50;5003342;28;20112;-76
2021/07/09 06:13:01;;;;;;;6.68;4.65;;;;;;;19.61;nan;100548.03;5003183;28;20513;-76
2021/07/09 06:15:26;;;;;;;4.93;4.30;;;;;;;19.57;nan;100541.06;5005015;28;20033;-76
2021/07/09 06:17:53;;;;;;;5.85;5.25;;;;;;;19.47;nan;100546.81;5003011;28;20034;-76
2021/07/09 06:20:18;;;;;;;5.07;4.13;;;;;;;19.52;nan;100560.00;5003181;28;20470;-76
2021/07/09 06:22:46;;;;;;;4.43;4.03;;;;;;;19.56;nan;100558.06;5006147;28;20058;-76
2021/07/09 06:25:12;;;;;;;5.13;4.60;;;;;;;19.66;nan;100552.28;5003912;28;20064;-76
2021/07/09 06:27:37;;;;;;;5.05;4.55;;;;;;;19.74;nan;100551.94;5004115;28;20040;-76
2021/07/09 06:30:05;;;;;;;6.50;4.53;;;;;;;19.78;nan;100561.59;5002179;28;20042;-76
2021/07/09 06:32:30;;;;;;;5.65;5.10;;;;;;;19.81;nan;100549.88;5003976;28;20061;-76
2021/07/09 06:34:55;;;;;;;9.23;5.78;;;;;;;19.81;nan;100544.53;4986134;28;20034;-76
2021/07/09 06:37:21;;;;;;;4.75;4.25;;;;;;;19.89;nan;100542.38;5001938;28;20150;-76
2021/07/09 06:39:46;;;;;;;6.95;4.55;;;;;;;19.99;nan;100537.44;5004126;28;20542;-76
2021/07/09 06:42:12;;;;;;;5.50;4.85;;;;;;;20.01;nan;100539.13;5003759;28;20423;-76
2021/07/09 06:44:37;;;;;;;5.07;4.55;;;;;;;20.12;nan;100539.53;5001451;28;20512;-76
2021/07/09 06:47:03;;;;;;;6.82;5.43;;;;;;;20.13;nan;100535.88;5004266;28;20037;-76
2021/07/09 06:49:28;;;;;;;7.90;4.95;;;;;;;20.11;nan;100531.53;5005349;28;20069;-76
2021/07/09 06:51:53;;;;;;;6.93;5.32;;;;;;;20.12;nan;100528.81;5001920;28;20034;-76
2021/07/09 06:54:19;;;;;;;6.97;4.97;;;;;;;20.19;nan;100526.69;5004098;28;20116;-76
2021/07/09 06:56:44;;;;;;;7.70;5.78;;;;;;;20.31;nan;100522.59;5023904;23;20045;-80
2021/07/09 06:59:10;;;;;;;6.15;5.53;;;;;;;20.41;nan;100517.66;5036743;28;20101;-78
2021/07/09 07:01:35;;;;;;;8.07;7.28;;;;;;;20.58;nan;100509.72;5037253;28;20226;-79
2021/07/09 07:04:00;;;;;;;7.60;6.80;;;;;;;20.70;nan;100510.97;5045187;28;20068;-79
2021/07/09 07:06:26;;;;;;;8.93;6.97;;;;;;;20.83;nan;100506.72;5041455;28;20056;-80
2021/07/09 07:08:51;;;;;;;10.50;9.20;;;;;;;20.93;nan;100510.69;5025670;28;20072;-79
2021/07/09 07:11:16;;;;;;;9.23;7.85;;;;;;;20.99;nan;100507.69;5029133;28;20574;-80
2021/07/09 07:13:42;;;;;;;9.50;8.60;;;;;;;20.98;nan;100503.25;5026022;28;20041;-79
2021/07/09 07:16:08;;;;;;;10.40;8.85;;;;;;;20.90;nan;100504.59;5028680;28;20041;-80
2021/07/09 07:18:33;;;;;;;14.73;12.32;;;;;;;20.94;nan;100504.38;5020340;28;20480;-80
2021/07/09 07:20:59;;;;;;;11.65;10.45;;;;;;;20.99;nan;100505.03;5031741;28;20041;-80
2021/07/09 07:23:24;;;;;;;12.18;9.15;;;;;;;20.91;nan;100501.84;5024244;28;20091;-80
2021/07/09 07:25:50;;;;;;;13.35;10.35;;;;;;;20.85;nan;100499.44;5028779;28;20029;-80
2021/07/09 07:28:16;;;;;;;9.88;8.55;;;;;;;20.89;nan;100501.06;5020911;28;20034;-79
2021/07/09 07:30:42;;;;;;;13.68;9.73;;;;;;;20.90;nan;100499.22;5043029;28;20048;-79
2021/07/09 07:33:09;;;;;;;12.45;9.93;;;;;;;20.83;nan;100493.31;5025687;28;20029;-80
2021/07/09 07:35:35;;;;;;;11.35;9.82;;;;;;;20.83;nan;100487.06;5024713;28;20033;-79
2021/07/09 07:38:01;;;;;;;10.90;9.75;;;;;;;21.01;nan;100475.41;5026515;28;20040;-79
2021/07/09 07:40:26;;;;;;;11.88;10.50;;;;;;;21.27;nan;100479.44;5024669;28;20041;-80
2021/07/09 07:42:51;;;;;;;10.98;9.77;;;;;;;21.56;nan;100469.03;5003380;28;20551;-79
2021/07/09 07:45:17;;;;;;;13.65;12.05;;;;;;;21.86;nan;100462.03;5027261;28;20459;-79
2021/07/09 07:47:42;;;;;;;11.93;10.73;;;;;;;22.04;nan;100462.88;5040449;28;20068;-79
2021/07/09 07:50:09;;;;;;;14.52;13.02;;;;;;;22.03;nan;100457.56;5026045;28;20041;-80
2021/07/09 07:52:35;;;;;;;14.25;12.73;;;;;;;22.01;nan;100457.66;5026574;28;20068;-80
2021/07/09 07:55:00;;;;;;;13.32;11.95;;;;;;;21.99;nan;100458.69;5026418;28;20034;-79
2021/07/09 07:57:26;;;;;;;13.15;11.75;;;;;;;21.96;nan;100458.88;5030762;28;20058;-79
2021/07/09 07:59:51;;;;;;;18.13;16.38;;;;;;;21.92;nan;100468.03;5033987;28;20048;-80
2021/07/09 08:02:17;;;;;;;19.67;17.63;;;;;;;21.99;nan;100469.44;5010453;28;20038;-79
2021/07/09 08:04:44;;;;;;;19.30;17.23;;;;;;;22.09;nan;100470.69;5031008;28;20408;-80
2021/07/09 08:07:10;;;;;;;16.85;15.15;;;;;;;22.18;nan;100466.59;5027468;28;20037;-80
2021/07/09 08:09:35;;;;;;;16.10;13.13;;;;;;;22.27;nan;100461.63;5009749;28;20047;-80
2021/07/09 08:12:01;;;;;;;16.13;14.55;;;;;;;22.37;nan;100461.09;5025044;28;20046;-79
2021/07/09 08:14:28;;;;;;;15.90;14.30;;;;;;;22.33;nan;100459.56;5019879;28;20141;-79
2021/07/09 08:16:53;;;;;;;17.08;15.38;;;;;;;22.25;nan;100459.97;5021859;28;20117;-79
2021/07/09 08:19:20;;;;;;;14.55;13.05;;;;;;;22.16;nan;100461.31;5027985;28;20041;-79
2021/07/09 08:21:46;;;;;;;15.45;13.95;;;;;;;22.23;nan;100461.88;5022639;28;20117;-79
2021/07/09 08:24:16;;;;;;;16.95;15.45;;;;;;;22.24;nan;100466.28;5029636;28;20087;-80
2021/07/09 08:26:41;;;;;;;15.85;14.30;;;;;;;22.29;nan;100457.00;5025757;28;20036;-80
2021/07/09 08:29:07;;;;;;;15.90;14.02;;;;;;;22.32;nan;100461.34;5033183;28;20041;-80
2021/07/09 08:31:32;;;;;;;13.02;11.68;;;;;;;22.37;nan;100461.09;5027851;28;20048;-80
2021/07/09 08:33:58;;;;;;;14.68;13.25;;;;;;;22.58;nan;100465.25;5025098;28;20042;-80
2021/07/09 08:36:26;;;;;;;14.07;12.77;;;;;;;22.78;nan;100468.63;5026860;28;20116;-80
2021/07/09 08:38:52;;;;;;;15.20;13.77;;;;;;;23.05;nan;100456.28;5031975;28;20047;-80
2021/07/09 08:41:18;;;;;;;14.70;13.20;;;;;;;23.19;nan;100458.16;5010913;28;20048;-80
2021/07/09 08:43:43;;;;;;;13.38;12.05;;;;;;;23.19;nan;100463.56;5023884;28;20404;-79
2021/07/09 08:46:09;;;;;;;16.05;14.35;;;;;;;23.27;nan;100471.16;5027657;28;20045;-79
2021/07/09 08:48:36;;;;;;;14.13;12.75;;;;;;;23.29;nan;100463.84;5024667;28;20535;-79
2021/07/09 08:51:01;;;;;;;16.30;14.73;;;;;;;23.13;nan;100475.56;5026056;28;20057;-80
2021/07/09 08:53:27;;;;;;;14.73;13.43;;;;;;;23.00;nan;100479.03;5027504;28;20037;-79
2021/07/09 08:55:53;;;;;;;12.45;11.25;;;;;;;22.87;nan;100474.38;5027933;28;20041;-80
2021/07/09 08:58:18;;;;;;;15.18;13.57;;;;;;;22.85;nan;100483.47;5024749;28;20137;-80
2021/07/09 09:00:44;;;;;;;13.30;12.00;;;;;;;22.95;nan;100487.34;5027608;28;20064;-80
2021/07/09 09:03:12;;;;;;;16.63;15.07;;;;;;;23.18;nan;100489.56;5039611;28;20034;-80
2021/07/09 09:05:38;;;;;;;16.42;14.93;;;;;;;23.51;nan;100485.84;5017453;28;20038;-79
2021/07/09 09:08:05;;;;;;;20.92;18.90;;;;;;;23.93;nan;100481.47;5026829;28;20498;-80
2021/07/09 09:10:38;;;;;;;13.85;12.55;;;;;;;24.16;nan;100480.03;5025274;28;20037;-79
2021/07/09 09:13:17;;;;;;;14.35;12.85;;;;;;;24.29;nan;100482.81;5024224;28;20602;-79
2021/07/09 09:15:59;;;;;;;17.15;15.55;;;;;;;24.43;nan;100480.09;5023185;28;20053;-80
2021/07/09 09:18:29;;;;;;;16.25;14.70;;;;;;;24.63;nan;100486.06;5036725;28;20463;-80
2021/07/09 09:21:07;;;;;;;17.40;15.80;;;;;;;24.91;nan;100488.66;5007309;28;20049;-80
2021/07/09 09:23:35;;;;;;;13.30;11.90;;;;;;;25.09;nan;100480.28;5021246;28;20045;-80
2021/07/09 09:26:02;;;;;;;11.43;10.25;;;;;;;25.16;nan;100476.25;5028506;28;20060;-79
2021/07/09 09:28:29;;;;;;;17.77;16.08;;;;;;;25.27;nan;100475.50;5011794;28;20065;-80
2021/07/09 09:30:56;;;;;;;13.85;12.65;;;;;;;25.24;nan;100476.59;5028768;28;20140;-79
2021/07/09 09:33:29;;;;;;;13.15;11.23;;;;;;;25.30;nan;100467.19;5022864;28;20041;-79
2021/07/09 09:35:56;;;;;;;13.30;12.10;;;;;;;25.47;nan;100471.44;5029993;28;20175;-79
2021/07/09 09:38:29;;;;;;;16.70;15.07;;;;;;;25.58;nan;100463.44;5027980;28;20041;-80
2021/07/09 09:40:57;;;;;;;13.85;12.40;;;;;;;25.58;nan;100463.44;5027451;28;20847;-80
2021/07/09 09:43:27;;;;;;;13.80;12.55;;;;;;;25.68;nan;100456.44;5045952;28;20040;-80
2021/07/09 09:46:06;;;;;;;13.68;12.38;;;;;;;25.72;nan;100459.75;5028165;28;20038;-79
2021/07/09 09:48:44;;;;;;;11.20;10.10;;;;;;;25.86;nan;100450.69;5023498;28;20085;-79
2021/07/09 09:51:29;;;;;;;11.82;10.80;;;;;;;25.83;nan;100457.16;5032951;28;20044;-80
2021/07/09 09:54:03;;;;;;;16.90;15.40;;;;;;;25.82;nan;100449.19;5034047;28;20049;-79
2021/07/09 09:56:49;;;;;;;13.15;11.85;;;;;;;25.54;nan;100452.00;5010594;28;20041;-79
2021/07/09 09:59:25;;;;;;;11.93;10.82;;;;;;;25.22;nan;100451.50;5021724;28;20131;-79
2021/07/09 10:01:54;;;;;;;11.25;10.15;;;;;;;24.96;nan;100445.16;5027449;28;20069;-79
2021/07/09 10:04:21;;;;;;;11.15;10.02;;;;;;;24.79;nan;100438.19;5036513;28;20038;-79
2021/07/09 10:06:48;;;;;;;11.07;10.00;;;;;;;24.69;nan;100442.47;5043732;28;20508;-80
2021/07/09 10:09:15;;;;;;;12.20;11.05;;;;;;;24.79;nan;100440.91;5027312;28;20022;-80
2021/07/09 10:11:41;;;;;;;12.63;11.52;;;;;;;24.99;nan;100433.28;5026578;28;20067;-80
2021/07/09 10:14:18;;;;;;;10.90;9.88;;;;;;;25.04;nan;100431.13;5022706;28;20034;-80
2021/07/09 10:16:46;;;;;;;14.15;12.75;;;;;;;24.92;nan;100428.31;5027295;28;20411;-80
2021/07/09 10:19:18;;;;;;;11.93;10.77;;;;;;;25.40;nan;100426.91;5026524;28;20041;-80
2021/07/09 10:21:43;;;;;;;11.35;10.25;;;;;;;25.88;nan;100427.13;5023629;28;20109;-80
2021/07/09 10:24:10;;;;;;;11.57;10.48;;;;;;;26.29;nan;100436.78;5026527;28;20075;-80
2021/07/09 10:26:42;;;;;;;10.98;9.73;;;;;;;26.44;nan;100433.81;5027385;28;20030;-79
2021/07/09 10:29:19;;;;;;;11.93;10.80;;;;;;;26.49;nan;100433.50;5021624;28;20037;-79
2021/07/09 10:31:47;;;;;;;10.30;9.40;;;;;;;26.80;nan;100426.69;5026980;28;20458;-79
2021/07/09 10:34:23;;;;;;;8.82;7.93;;;;;;;27.07;nan;100412.00;5026870;28;20037;-79
2021/07/09 10:36:54;;;;;;;9.43;7.60;;;;;;;27.20;nan;100411.94;5022080;28;20581;-79
2021/07/09 10:39:36;;;;;;;9.63;8.68;;;;;;;26.96;nan;100411.94;5028976;28;20041;-79
2021/07/09 10:42:15;;;;;;;9.48;8.57;;;;;;;26.84;nan;100402.94;5024734;28;20125;-79
2021/07/09 10:45:01;;;;;;;8.77;6.88;;;;;;;26.66;nan;100406.03;5028545;28;20132;-79
2021/07/09 10:47:38;;;;;;;6.63;6.03;;;;;;;26.71;nan;100407.53;5007355;28;20050;-79
2021/07/09 10:50:07;;;;;;;8.20;6.97;;;;;;;27.15;nan;100406.00;5004976;28;20060;-79
2021/07/09 10:53:18;;;;;;;8.20;7.40;;;;;;;27.61;nan;100400.53;5026534;28;20116;-78
2021/07/09 10:55:50;;;;;;;7.90;6.63;;;;;;;27.94;nan;100388.88;4989404;28;20056;-79
2021/07/09 10:58:21;;;;;;;11.02;9.55;;;;;;;28.51;nan;100380.66;5026807;28;20299;-79
2021/07/09 11:00:55;;;;;;;18.98;16.58;;;;;;;28.89;nan;100390.13;5028619;28;20042;-80
2021/07/09 11:03:40;;;;;;;13.18;11.90;;;;;;;28.88;nan;100401.97;5023781;28;20049;-81
2021/07/09 11:06:11;;;;;;;6.65;5.95;;;;;;;28.61;nan;100390.63;5023107;28;20408;-80
2021/07/09 11:08:51;;;;;;;6.60;5.45;;;;;;;28.28;nan;100393.38;5025766;28;20050;-81
2021/07/09 11:11:38;;;;;;;6.03;4.45;;;;;;;27.86;nan;100402.19;5006483;28;20034;-81
2021/07/09 11:14:09;;;;;;;7.15;5.53;;;;;;;28.08;nan;100398.59;5025737;28;20034;-81
2021/07/09 11:16:36;;;;;;;4.97;3.93;;;;;;;28.51;nan;100386.09;5027577;28;20042;-81
2021/07/09 11:19:07;;;;;;;4.43;3.45;;;;;;;28.82;nan;100382.50;5028388;28;20128;-81
2021/07/09 11:21:33;;;;;;;8.23;6.43;;;;;;;29.12;nan;100383.59;5026577;28;20033;-80
2021/07/09 11:24:09;;;;;;;6.60;4.70;;;;;;;29.05;nan;100393.28;5029378;28;20782;-81
2021/07/09 11:26:36;;;;;;;2.97;2.28;;;;;;;29.12;nan;100371.88;5027932;28;20488;-81
2021/07/09 11:29:17;;;;;;;6.97;4.97;;;;;;;28.85;nan;100386.81;5027440;28;20044;-80
2021/07/09 11:31:43;;;;;;;6.05;3.10;;;;;;;28.58;nan;100377.31;5021505;28;20042;-80
2021/07/09 11:34:11;;;;;;;7.47;5.30;;;;;;;28.71;nan;100374.38;5026591;28;20418;-80
2021/07/09 11:36:47;;;;;;;5.30;3.60;;;;;;;28.50;nan;100381.63;5026409;28;20033;-80
2021/07/09 11:39:16;;;;;;;3.67;2.60;;;;;;;28.52;nan;100374.22;5026085;28;20030;-80